sensor_id;sensor_type;location;lat;lon;timestamp;temperature;humidity
46335;DHT22;32051;48.882;9.210;2022-08-21T11:47:48;35.20;91.00
46335;DHT22;32051;48.882;9.210;2022-08-21T11:50:18;35.40;61.20
46335;DHT22;32051;48.882;9.210;2022-08-21T11:53:01;35.10;61.20
46335;DHT22;32051;48.882;9.210;2022-08-21T12:03:26;35.90;61.00
46335;DHT22;32051;48.882;9.210;2022-08-21T12:05:58;36.20;60.00
46335;DHT22;32051;48.882;9.210;2022-08-21T12:08:39;36.40;57.50
46335;DHT22;32051;48.882;9.210;2022-08-21T12:16:44;37.10;57.40
46335;DHT22;32051;48.882;9.210;2022-08-21T12:19:30;37.10;56.40
46335;DHT22;32051;48.882;9.210;2022-08-21T12:24:37;37.70;55.20
46335;DHT22;32051;48.882;9.210;2022-08-21T12:27:28;38.00;55.50
46335;DHT22;32051;48.882;9.210;2022-08-21T12:35:15;38.10;54.20
46335;DHT22;32051;48.882;9.210;2022-08-21T12:37:43;38.20;54.50
46335;DHT22;32051;48.882;9.210;2022-08-21T12:40:23;38.30;54.80
46335;DHT22;32051;48.882;9.210;2022-08-21T12:42:53;38.40;53.90
46335;DHT22;32051;48.882;9.210;2022-08-21T12:45:45;38.50;53.90
46335;DHT22;32051;48.882;9.210;2022-08-21T12:48:23;38.50;53.70
46335;DHT22;32051;48.882;9.210;2022-08-21T12:50:52;38.80;52.90
46335;DHT22;32051;48.882;9.210;2022-08-21T12:53:36;39.00;52.90
46335;DHT22;32051;48.882;9.210;2022-08-21T12:56:09;39.00;51.20
46335;DHT22;32051;48.882;9.210;2022-08-21T12:58:35;38.70;51.50
46335;DHT22;32051;48.882;9.210;2022-08-21T13:01:07;38.60;51.70
46335;DHT22;32051;48.882;9.210;2022-08-21T13:03:39;38.70;52.90
46335;DHT22;32051;48.882;9.210;2022-08-21T13:06:06;38.80;51.40
46335;DHT22;32051;48.882;9.210;2022-08-21T13:08:35;38.80;51.00
46335;DHT22;32051;48.882;9.210;2022-08-21T13:11:05;38.70;50.50
46335;DHT22;32051;48.882;9.210;2022-08-21T13:13:33;38.50;49.70
46335;DHT22;32051;48.882;9.210;2022-08-21T13:16:04;38.20;49.90
46335;DHT22;32051;48.882;9.210;2022-08-21T13:18:34;38.20;49.60
46335;DHT22;32051;48.882;9.210;2022-08-21T13:21:06;38.30;50.80
46335;DHT22;32051;48.882;9.210;2022-08-21T13:26:00;38.90;47.80
46335;DHT22;32051;48.882;9.210;2022-08-21T13:28:35;39.10;50.70
46335;DHT22;32051;48.882;9.210;2022-08-21T13:31:07;39.40;49.20
46335;DHT22;32051;48.882;9.210;2022-08-21T13:33:37;39.50;49.10
46335;DHT22;32051;48.882;9.210;2022-08-21T13:36:16;39.00;48.40
46335;DHT22;32051;48.882;9.210;2022-08-21T13:38:44;38.60;47.90
46335;DHT22;32051;48.882;9.210;2022-08-21T13:41:30;38.60;48.20
46335;DHT22;32051;48.882;9.210;2022-08-21T13:46:44;38.00;47.90
46335;DHT22;32051;48.882;9.210;2022-08-21T13:49:14;37.90;48.90
46335;DHT22;32051;48.882;9.210;2022-08-21T13:51:41;38.00;47.80
46335;DHT22;32051;48.882;9.210;2022-08-21T13:54:22;38.30;47.60
46335;DHT22;32051;48.882;9.210;2022-08-21T13:56:48;38.20;47.60
46335;DHT22;32051;48.882;9.210;2022-08-21T13:59:44;37.70;48.00
46335;DHT22;32051;48.882;9.210;2022-08-21T14:02:16;37.60;47.70
46335;DHT22;32051;48.882;9.210;2022-08-21T14:05:01;37.80;48.20
46335;DHT22;32051;48.882;9.210;2022-08-21T14:07:36;38.20;48.00
46335;DHT22;32051;48.882;9.210;2022-08-21T14:10:18;38.50;46.80
46335;DHT22;32051;48.882;9.210;2022-08-21T14:15:15;38.50;48.00
46335;DHT22;32051;48.882;9.210;2022-08-21T14:17:42;38.30;47.70
46335;DHT22;32051;48.882;9.210;2022-08-21T14:20:33;38.20;48.10
46335;DHT22;32051;48.882;9.210;2022-08-21T14:23:00;38.10;47.80
46335;DHT22;32051;48.882;9.210;2022-08-21T14:28:57;38.00;47.60
46335;DHT22;32051;48.882;9.210;2022-08-21T14:30:48;37.50;47.20
46335;DHT22;32051;48.882;9.210;2022-08-21T14:33:33;36.60;49.10
46335;DHT22;32051;48.882;9.210;2022-08-21T14:40:57;33.40;50.20
46335;DHT22;32051;48.882;9.210;2022-08-21T14:43:26;33.10;51.10
46335;DHT22;32051;48.882;9.210;2022-08-21T14:45:52;32.30;53.50
46335;DHT22;32051;48.882;9.210;2022-08-21T14:48:18;31.70;52.00
46335;DHT22;32051;48.882;9.210;2022-08-21T14:50:43;31.20;54.20
46335;DHT22;32051;48.882;9.210;2022-08-21T14:53:09;30.80;54.10
46335;DHT22;32051;48.882;9.210;2022-08-21T14:55:36;30.40;54.20
46335;DHT22;32051;48.882;9.210;2022-08-21T14:58:23;30.00;54.60
46335;DHT22;32051;48.882;9.210;2022-08-21T15:00:50;29.60;55.50
46335;DHT22;32051;48.882;9.210;2022-08-21T15:03:17;29.20;55.80
46335;DHT22;32051;48.882;9.210;2022-08-21T15:05:43;29.00;55.70
46335;DHT22;32051;48.882;9.210;2022-08-21T15:08:09;28.80;56.50
46335;DHT22;32051;48.882;9.210;2022-08-21T15:10:35;28.70;57.20
46335;DHT22;32051;48.882;9.210;2022-08-21T15:13:01;28.60;56.90
46335;DHT22;32051;48.882;9.210;2022-08-21T15:15:50;28.50;56.70
46335;DHT22;32051;48.882;9.210;2022-08-21T15:18:15;28.40;56.70
46335;DHT22;32051;48.882;9.210;2022-08-21T15:20:41;28.30;56.60
46335;DHT22;32051;48.882;9.210;2022-08-21T15:23:08;28.20;58.00
46335;DHT22;32051;48.882;9.210;2022-08-21T15:25:34;28.10;57.50
46335;DHT22;32051;48.882;9.210;2022-08-21T15:28:01;28.00;56.60
46335;DHT22;32051;48.882;9.210;2022-08-21T15:30:29;27.90;57.60
46335;DHT22;32051;48.882;9.210;2022-08-21T15:32:56;27.90;57.30
46335;DHT22;32051;48.882;9.210;2022-08-21T15:35:22;27.80;56.80
46335;DHT22;32051;48.882;9.210;2022-08-21T15:37:47;27.80;56.30
46335;DHT22;32051;48.882;9.210;2022-08-21T15:40:14;27.80;57.80
46335;DHT22;32051;48.882;9.210;2022-08-21T15:42:41;27.70;57.80
46335;DHT22;32051;48.882;9.210;2022-08-21T15:45:08;27.70;57.90
46335;DHT22;32051;48.882;9.210;2022-08-21T15:47:36;27.60;57.70
46335;DHT22;32051;48.882;9.210;2022-08-21T15:50:07;27.60;58.30
46335;DHT22;32051;48.882;9.210;2022-08-21T15:52:34;27.50;58.10
46335;DHT22;32051;48.882;9.210;2022-08-21T15:55:00;27.50;58.50
46335;DHT22;32051;48.882;9.210;2022-08-21T15:57:26;27.50;58.70
46335;DHT22;32051;48.882;9.210;2022-08-21T16:00:04;27.40;56.80
46335;DHT22;32051;48.882;9.210;2022-08-21T16:02:38;27.30;58.70
46335;DHT22;32051;48.882;9.210;2022-08-21T16:05:05;27.30;57.80
46335;DHT22;32051;48.882;9.210;2022-08-21T16:07:31;27.20;58.00
46335;DHT22;32051;48.882;9.210;2022-08-21T16:09:56;27.20;57.90
46335;DHT22;32051;48.882;9.210;2022-08-21T16:12:25;27.20;57.30
46335;DHT22;32051;48.882;9.210;2022-08-21T16:14:53;27.10;57.40
46335;DHT22;32051;48.882;9.210;2022-08-21T16:17:21;27.00;58.70
46335;DHT22;32051;48.882;9.210;2022-08-21T16:19:50;27.00;59.20
46335;DHT22;32051;48.882;9.210;2022-08-21T16:22:16;27.00;59.10
46335;DHT22;32051;48.882;9.210;2022-08-21T16:24:41;26.90;59.50
46335;DHT22;32051;48.882;9.210;2022-08-21T16:27:08;26.90;58.80
46335;DHT22;32051;48.882;9.210;2022-08-21T16:29:35;26.80;59.70
46335;DHT22;32051;48.882;9.210;2022-08-21T16:32:02;26.70;60.00
46335;DHT22;32051;48.882;9.210;2022-08-21T16:34:28;26.70;60.50
46335;DHT22;32051;48.882;9.210;2022-08-21T16:36:54;26.70;60.50
46335;DHT22;32051;48.882;9.210;2022-08-21T16:39:19;26.60;60.70
46335;DHT22;32051;48.882;9.210;2022-08-21T16:41:47;26.60;61.80
46335;DHT22;32051;48.882;9.210;2022-08-21T16:44:14;26.50;60.80
46335;DHT22;32051;48.882;9.210;2022-08-21T16:46:41;26.50;61.10
46335;DHT22;32051;48.882;9.210;2022-08-21T16:49:07;26.40;60.70
46335;DHT22;32051;48.882;9.210;2022-08-21T16:51:35;26.40;62.10
46335;DHT22;32051;48.882;9.210;2022-08-21T16:54:01;26.30;62.30
46335;DHT22;32051;48.882;9.210;2022-08-21T16:56:28;26.30;62.20
46335;DHT22;32051;48.882;9.210;2022-08-21T16:58:56;26.30;62.40
46335;DHT22;32051;48.882;9.210;2022-08-21T17:01:26;26.20;62.60
46335;DHT22;32051;48.882;9.210;2022-08-21T17:03:53;26.20;62.80
46335;DHT22;32051;48.882;9.210;2022-08-21T17:06:20;26.10;62.20
46335;DHT22;32051;48.882;9.210;2022-08-21T17:08:46;26.10;62.10
46335;DHT22;32051;48.882;9.210;2022-08-21T17:13:54;26.00;63.00
46335;DHT22;32051;48.882;9.210;2022-08-21T17:16:21;25.90;63.50
46335;DHT22;32051;48.882;9.210;2022-08-21T17:18:47;25.80;64.20
46335;DHT22;32051;48.882;9.210;2022-08-21T17:21:13;25.80;63.70
46335;DHT22;32051;48.882;9.210;2022-08-21T17:23:39;25.70;63.70
46335;DHT22;32051;48.882;9.210;2022-08-21T17:26:05;25.70;63.80
46335;DHT22;32051;48.882;9.210;2022-08-21T17:28:34;25.60;63.50
46335;DHT22;32051;48.882;9.210;2022-08-21T17:31:01;25.60;64.70
46335;DHT22;32051;48.882;9.210;2022-08-21T17:33:31;25.50;65.10
46335;DHT22;32051;48.882;9.210;2022-08-21T17:35:59;25.40;64.90
46335;DHT22;32051;48.882;9.210;2022-08-21T17:38:26;25.30;64.90
46335;DHT22;32051;48.882;9.210;2022-08-21T17:40:52;25.30;64.90
46335;DHT22;32051;48.882;9.210;2022-08-21T17:43:18;25.20;65.00
46335;DHT22;32051;48.882;9.210;2022-08-21T17:45:44;25.10;65.50
46335;DHT22;32051;48.882;9.210;2022-08-21T17:48:10;25.00;65.50
46335;DHT22;32051;48.882;9.210;2022-08-21T17:50:36;25.00;65.70
46335;DHT22;32051;48.882;9.210;2022-08-21T17:53:02;24.90;65.70
46335;DHT22;32051;48.882;9.210;2022-08-21T17:55:29;24.80;65.90
46335;DHT22;32051;48.882;9.210;2022-08-21T17:57:56;24.70;65.50
46335;DHT22;32051;48.882;9.210;2022-08-21T18:00:24;24.60;66.00
46335;DHT22;32051;48.882;9.210;2022-08-21T18:03:01;24.50;67.20
46335;DHT22;32051;48.882;9.210;2022-08-21T18:05:28;24.40;67.80
46335;DHT22;32051;48.882;9.210;2022-08-21T18:07:54;24.30;66.80
